createdAt,value
2019-04-29T00:00:28.000Z,8.36
2019-04-29T00:01:28.032Z,8.34
2019-04-29T00:02:28.065Z,8.35
2019-04-29T00:03:28.092Z,8.38
2019-04-29T00:04:28.122Z,8.36
2019-04-29T00:05:28.151Z,8.38
2019-04-29T00:06:28.183Z,8.38
2019-04-29T00:07:28.213Z,8.31
2019-04-29T00:08:28.242Z,8.21
2019-04-29T00:09:30.832Z,8.21
2019-04-29T00:10:28.303Z,8.21
2019-04-29T00:11:28.334Z,8.31
2019-04-29T00:12:28.363Z,8.32
2019-04-29T00:13:28.393Z,8.32
2019-04-29T00:14:28.427Z,8.41
2019-04-29T00:15:28.456Z,8.32
2019-04-29T00:16:28.482Z,8.26
2019-04-29T00:17:28.522Z,8.27
2019-04-29T00:18:28.544Z,8.21
2019-04-29T00:19:28.575Z,8.16
2019-04-29T00:20:28.605Z,8.24
2019-04-29T00:21:28.634Z,8.18
2019-04-29T00:22:28.667Z,8.21
2019-04-29T00:23:28.697Z,8.20
2019-04-29T00:24:28.729Z,8.08
2019-04-29T00:25:28.756Z,8.17
2019-04-29T00:26:28.786Z,8.16
2019-04-29T00:27:28.815Z,8.13
2019-04-29T00:28:28.846Z,8.08
2019-04-29T00:29:28.875Z,8.08
2019-04-29T00:30:28.905Z,8.03
2019-04-29T00:31:28.937Z,8.14
2019-04-29T00:32:28.965Z,8.03
2019-04-29T00:33:28.995Z,8.11
2019-04-29T00:34:29.027Z,8.14
2019-04-29T00:35:29.056Z,8.17
2019-04-29T00:36:29.088Z,8.17
2019-04-29T00:37:29.115Z,8.21
2019-04-29T00:38:29.146Z,8.21
2019-04-29T00:39:29.179Z,8.32
2019-04-29T00:40:29.209Z,8.34
2019-04-29T00:41:29.234Z,8.27
2019-04-29T00:42:29.265Z,8.32
2019-04-29T00:43:29.295Z,8.24
2019-04-29T00:44:29.326Z,8.34
2019-04-29T00:45:29.355Z,8.24
2019-04-29T00:46:29.386Z,8.23
2019-04-29T00:47:29.415Z,8.17
2019-04-29T00:48:29.445Z,8.20
2019-04-29T00:49:29.475Z,8.31
2019-04-29T00:50:29.507Z,8.31
2019-04-29T00:51:29.537Z,8.20
2019-04-29T00:52:29.568Z,8.17
2019-04-29T00:53:29.596Z,8.09
2019-04-29T00:54:29.625Z,8.06
2019-04-29T00:55:29.654Z,7.99
2019-04-29T00:56:29.685Z,8.06
2019-04-29T00:57:29.717Z,8.18
2019-04-29T00:58:29.746Z,8.16
2019-04-29T00:59:29.775Z,8.13
2019-04-29T01:00:29.805Z,8.11
2019-04-29T01:01:29.835Z,8.03
2019-04-29T01:02:29.869Z,8.01
2019-04-29T01:03:29.901Z,7.98
2019-04-29T01:04:29.929Z,8.02
2019-04-29T01:05:29.958Z,8.05
2019-04-29T01:06:29.985Z,8.11
2019-04-29T01:07:30.015Z,7.96
2019-04-29T01:08:30.046Z,7.98
2019-04-29T01:09:30.075Z,7.99
2019-04-29T01:10:30.110Z,8.02
2019-04-29T01:11:30.133Z,8.06
2019-04-29T01:12:30.165Z,8.20
2019-04-29T01:13:30.194Z,8.13
2019-04-29T01:14:30.224Z,8.11
2019-04-29T01:15:30.260Z,8.11
2019-04-29T01:16:30.286Z,8.14
2019-04-29T01:17:30.314Z,8.20
2019-04-29T01:18:30.347Z,8.08
2019-04-29T01:19:30.376Z,8.06
2019-04-29T01:20:30.404Z,8.06
2019-04-29T01:21:30.435Z,8.06
2019-04-29T01:22:30.464Z,8.06
2019-04-29T01:23:30.493Z,8.08
2019-04-29T01:24:30.530Z,7.83
2019-04-29T01:25:30.554Z,7.84
2019-04-29T01:26:30.588Z,7.87
2019-04-29T01:27:30.612Z,7.78
2019-04-29T01:28:30.642Z,8.03
2019-04-29T01:29:30.676Z,8.05
2019-04-29T01:30:30.702Z,7.88
2019-04-29T01:31:30.731Z,7.75
2019-04-29T01:32:30.761Z,7.77
2019-04-29T01:33:30.790Z,7.70
2019-04-29T01:34:30.821Z,7.66
2019-04-29T01:35:30.851Z,7.78
2019-04-29T01:36:30.883Z,7.72
2019-04-29T01:37:30.910Z,7.85
2019-04-29T01:38:30.940Z,7.84
2019-04-29T01:39:30.971Z,7.87
2019-04-29T01:40:31.001Z,7.78
2019-04-29T01:41:31.028Z,7.75
2019-04-29T01:42:31.063Z,7.78
2019-04-29T01:43:31.089Z,7.69
2019-04-29T01:44:31.117Z,7.66
2019-04-29T01:45:31.170Z,7.67
2019-04-29T01:46:31.180Z,7.58
2019-04-29T01:47:31.207Z,7.58
2019-04-29T01:48:31.239Z,7.67
2019-04-29T01:49:31.267Z,7.72
2019-04-29T01:50:31.298Z,7.70
2019-04-29T01:51:31.325Z,7.64
2019-04-29T01:52:31.364Z,7.56
2019-04-29T01:53:31.389Z,7.69
2019-04-29T01:54:31.416Z,7.74
2019-04-29T01:55:31.444Z,7.70
2019-04-29T01:56:31.476Z,7.70
2019-04-29T01:57:31.502Z,7.67
2019-04-29T01:58:31.534Z,7.69
2019-04-29T01:59:31.562Z,7.72
2019-04-29T02:00:31.595Z,7.70
2019-04-29T02:01:31.624Z,7.58
2019-04-29T02:02:31.652Z,7.66
2019-04-29T02:03:31.682Z,7.56
2019-04-29T02:04:31.714Z,7.62
2019-04-29T02:05:31.747Z,7.48
2019-04-29T02:06:31.774Z,7.51
2019-04-29T02:07:31.801Z,7.47
2019-04-29T02:08:31.837Z,7.46
2019-04-29T02:09:31.860Z,7.47
2019-04-29T02:10:31.891Z,7.47
2019-04-29T02:11:31.918Z,7.46
2019-04-29T02:12:31.948Z,7.56
2019-04-29T02:13:31.981Z,7.43
2019-04-29T02:14:32.008Z,7.40
2019-04-29T02:15:32.040Z,7.55
2019-04-29T02:16:32.066Z,7.41
2019-04-29T02:17:32.101Z,7.53
2019-04-29T02:18:32.129Z,7.50
2019-04-29T02:19:32.156Z,7.51
2019-04-29T02:20:32.185Z,7.55
2019-04-29T02:21:32.215Z,7.67
2019-04-29T02:22:32.244Z,7.69
2019-04-29T02:23:32.275Z,7.64
2019-04-29T02:24:32.310Z,7.66
2019-04-29T02:25:32.340Z,7.66
2019-04-29T02:26:32.368Z,7.66
2019-04-29T02:27:32.392Z,7.51
2019-04-29T02:28:32.421Z,7.53
2019-04-29T02:29:32.452Z,7.43
2019-04-29T02:30:32.484Z,7.50
2019-04-29T02:31:32.514Z,7.40
2019-04-29T02:32:32.542Z,7.48
2019-04-29T02:33:32.572Z,7.48
2019-04-29T02:34:32.602Z,7.46
2019-04-29T02:35:32.634Z,7.48
2019-04-29T02:36:32.664Z,7.46
2019-04-29T02:37:32.690Z,7.48
2019-04-29T02:38:32.721Z,7.36
2019-04-29T02:39:32.747Z,7.41
2019-04-29T02:40:32.778Z,7.48
2019-04-29T02:41:32.807Z,7.51
2019-04-29T02:42:32.839Z,7.39
2019-04-29T02:43:32.874Z,7.41
2019-04-29T02:44:32.898Z,7.37
2019-04-29T02:45:32.928Z,7.37
2019-04-29T02:46:32.957Z,7.36
2019-04-29T02:47:32.991Z,7.37
2019-04-29T02:48:34.690Z,7.25
2019-04-29T02:49:33.043Z,7.19
2019-04-29T02:50:33.073Z,7.22
2019-04-29T02:51:33.101Z,7.18
2019-04-29T02:52:33.140Z,7.29
2019-04-29T02:53:33.163Z,7.25
2019-04-29T02:54:33.194Z,7.18
2019-04-29T02:55:33.239Z,7.19
2019-04-29T02:56:33.248Z,7.26
2019-04-29T02:57:33.278Z,7.18
2019-04-29T02:58:33.317Z,7.33
2019-04-29T02:59:33.338Z,7.28
2019-04-29T03:00:33.378Z,7.40
2019-04-29T03:01:33.404Z,7.36
2019-04-29T03:02:33.428Z,7.23
2019-04-29T03:03:33.456Z,7.28
2019-04-29T03:04:33.486Z,7.50
2019-04-29T03:05:33.518Z,7.43
2019-04-29T03:06:33.549Z,7.47
2019-04-29T03:07:33.577Z,7.41
2019-04-29T03:08:33.602Z,7.39
2019-04-29T03:09:33.632Z,7.39
2019-04-29T03:10:33.667Z,7.43
2019-04-29T03:11:33.692Z,7.43
2019-04-29T03:12:33.721Z,7.41
2019-04-29T03:13:33.831Z,7.48
2019-04-29T03:14:33.781Z,7.51
2019-04-29T03:15:33.812Z,7.46
2019-04-29T03:16:33.865Z,7.46
2019-04-29T03:17:33.871Z,7.44
2019-04-29T03:18:33.899Z,7.50
2019-04-29T03:19:33.928Z,7.48
2019-04-29T03:20:33.961Z,7.46
2019-04-29T03:21:33.988Z,7.51
2019-04-29T03:22:34.020Z,7.41
2019-04-29T03:23:34.049Z,7.48
2019-04-29T03:24:34.076Z,7.53
2019-04-29T03:25:34.117Z,7.51
2019-04-29T03:26:34.140Z,7.51
2019-04-29T03:27:34.168Z,7.59
2019-04-29T03:28:34.197Z,7.66
2019-04-29T03:29:34.232Z,7.70
2019-04-29T03:30:34.256Z,7.70
2019-04-29T03:31:39.189Z,7.64
2019-04-29T03:32:34.315Z,7.72
2019-04-29T03:33:34.346Z,7.69
2019-04-29T03:34:34.382Z,7.72
2019-04-29T03:35:34.406Z,7.72
2019-04-29T03:36:34.435Z,7.77
2019-04-29T03:37:34.468Z,7.72
2019-04-29T03:38:34.496Z,7.69
2019-04-29T03:39:34.523Z,7.66
2019-04-29T03:40:34.553Z,7.81
2019-04-29T03:41:34.585Z,7.72
2019-04-29T03:42:34.614Z,7.72
2019-04-29T03:43:34.651Z,7.88
2019-04-29T03:44:34.676Z,7.90
2019-04-29T03:45:34.706Z,8.23
2019-04-29T03:46:34.735Z,8.11
2019-04-29T03:47:34.808Z,8.32
2019-04-29T03:48:34.795Z,8.20
2019-04-29T03:49:34.828Z,8.20
2019-04-29T03:50:34.860Z,8.08
2019-04-29T03:51:34.889Z,8.13
2019-04-29T03:52:34.918Z,7.99
2019-04-29T03:53:34.947Z,7.99
2019-04-29T03:54:34.977Z,7.95
2019-04-29T03:55:40.093Z,7.96
2019-04-29T03:56:35.036Z,7.90
2019-04-29T03:57:35.066Z,7.88
2019-04-29T03:58:35.098Z,7.99
2019-04-29T03:59:35.126Z,8.02
2019-04-29T04:00:35.156Z,7.99
2019-04-29T04:01:35.189Z,8.11
2019-04-29T04:02:35.297Z,8.17
2019-04-29T04:03:35.252Z,8.21
2019-04-29T04:04:35.289Z,8.28
2019-04-29T04:05:35.309Z,8.35
2019-04-29T04:06:35.340Z,8.35
2019-04-29T04:07:35.373Z,8.36
2019-04-29T04:08:35.401Z,8.24
2019-04-29T04:09:35.441Z,8.34
2019-04-29T04:10:35.465Z,8.21
2019-04-29T04:11:35.493Z,8.32
2019-04-29T04:12:35.523Z,8.36
2019-04-29T04:13:35.555Z,8.53
2019-04-29T04:14:35.585Z,8.23
2019-04-29T04:15:35.617Z,8.35
2019-04-29T04:16:35.656Z,8.39
2019-04-29T04:17:35.676Z,8.45
2019-04-29T04:18:35.713Z,8.53
2019-04-29T04:19:35.744Z,8.52
2019-04-29T04:20:35.775Z,8.56
2019-04-29T04:21:35.804Z,8.53
2019-04-29T04:22:35.834Z,8.52
2019-04-29T04:23:35.877Z,8.71
2019-04-29T04:24:35.893Z,8.56
2019-04-29T04:25:35.928Z,8.84
2019-04-29T04:26:35.957Z,8.97
2019-04-29T04:27:35.988Z,9.00
2019-04-29T04:28:36.017Z,8.84
2019-04-29T04:29:36.054Z,8.87
2019-04-29T04:30:36.093Z,8.74
2019-04-29T04:31:36.117Z,8.90
2019-04-29T04:32:36.142Z,8.79
2019-04-29T04:33:36.218Z,8.69
2019-04-29T04:34:36.208Z,8.75
2019-04-29T04:35:36.238Z,8.74
2019-04-29T04:36:36.349Z,8.86
2019-04-29T04:37:36.299Z,9.05
2019-04-29T04:38:36.335Z,8.81
2019-04-29T04:39:36.389Z,8.87
2019-04-29T04:40:36.396Z,9.34
2019-04-29T04:41:36.427Z,9.81
2019-04-29T04:42:36.466Z,9.97
2019-04-29T04:43:36.493Z,10.15
2019-04-29T04:44:36.531Z,10.45
2019-04-29T04:45:36.564Z,10.43
2019-04-29T04:46:36.587Z,10.75
2019-04-29T04:47:36.618Z,11.07
2019-04-29T04:48:36.651Z,11.44
2019-04-29T04:49:36.686Z,11.67
2019-04-29T04:50:36.773Z,12.26
2019-04-29T04:51:36.753Z,12.47
2019-04-29T04:52:36.782Z,12.68
2019-04-29T04:53:36.816Z,12.03
2019-04-29T04:54:36.849Z,12.32
2019-04-29T04:55:36.880Z,12.39
2019-04-29T04:56:36.917Z,11.45
2019-04-29T04:57:36.951Z,11.85
2019-04-29T04:58:36.983Z,12.18
2019-04-29T04:59:37.015Z,12.65
2019-04-29T05:00:37.050Z,12.69
2019-04-29T05:01:37.088Z,12.78
2019-04-29T05:02:37.117Z,12.94
2019-04-29T05:03:37.157Z,11.78
2019-04-29T05:04:37.205Z,12.66
2019-04-29T05:05:37.227Z,12.75
2019-04-29T05:06:37.258Z,11.81
2019-04-29T05:07:37.297Z,11.52
2019-04-29T05:08:37.329Z,12.28
2019-04-29T05:09:37.363Z,12.91
2019-04-29T05:10:37.401Z,13.21
2019-04-29T05:11:37.438Z,13.31
2019-04-29T05:12:37.475Z,13.89
2019-04-29T05:13:37.512Z,13.60
2019-04-29T05:14:37.547Z,13.37
2019-04-29T05:15:37.582Z,12.32
2019-04-29T05:16:37.621Z,12.50
2019-04-29T05:17:37.655Z,11.34
2019-04-29T05:18:37.695Z,11.85
2019-04-29T05:19:37.729Z,12.39
2019-04-29T05:20:37.767Z,13.06
2019-04-29T05:21:37.804Z,12.91
2019-04-29T05:22:37.839Z,13.57
2019-04-29T05:23:37.877Z,13.20
2019-04-29T05:24:37.919Z,12.43
2019-04-29T05:25:37.959Z,12.26
2019-04-29T05:26:37.990Z,13.11
2019-04-29T05:27:38.030Z,13.54
2019-04-29T05:28:38.064Z,13.80
2019-04-29T05:29:38.104Z,12.68
2019-04-29T05:30:38.141Z,12.99
2019-04-29T05:31:38.180Z,13.27
2019-04-29T05:32:38.215Z,13.11
2019-04-29T05:33:38.253Z,13.20
2019-04-29T05:34:41.720Z,12.94
2019-04-29T05:35:40.224Z,13.36
2019-04-29T05:36:39.309Z,13.27
2019-04-29T05:37:38.406Z,12.84
2019-04-29T05:38:38.446Z,12.86
2019-04-29T05:39:38.483Z,13.36
2019-04-29T05:40:38.526Z,12.76
2019-04-29T05:41:38.559Z,12.68
2019-04-29T05:42:38.601Z,13.23
2019-04-29T05:43:38.637Z,12.73
2019-04-29T05:44:38.674Z,13.21
2019-04-29T05:45:41.487Z,12.75
2019-04-29T05:46:38.753Z,12.48
2019-04-29T05:47:38.796Z,13.28
2019-04-29T05:48:38.829Z,12.69
2019-04-29T05:49:41.634Z,13.58
2019-04-29T05:50:38.910Z,14.33
2019-04-29T05:51:38.947Z,14.18
2019-04-29T05:52:39.807Z,14.48
2019-04-29T05:53:39.025Z,13.05
2019-04-29T05:54:39.062Z,13.70
2019-04-29T05:55:39.101Z,14.16
2019-04-29T05:56:39.139Z,14.63
2019-04-29T05:57:39.180Z,14.25
2019-04-29T05:58:39.586Z,14.23
2019-04-29T05:59:39.260Z,13.47
2019-04-29T06:00:39.297Z,12.86
2019-04-29T06:01:42.715Z,13.37
2019-04-29T06:02:39.377Z,13.01
2019-04-29T06:03:39.812Z,13.64
2019-04-29T06:04:39.454Z,13.19
2019-04-29T06:05:39.494Z,13.60
2019-04-29T06:06:39.535Z,13.52
2019-04-29T06:07:39.573Z,13.46
2019-04-29T06:08:40.564Z,12.48
2019-04-29T06:09:39.690Z,12.08
2019-04-29T06:10:42.017Z,12.54
2019-04-29T06:11:39.732Z,12.36
2019-04-29T06:12:39.772Z,12.40
2019-04-29T06:13:39.811Z,12.76
2019-04-29T06:14:39.852Z,12.73
2019-04-29T06:15:39.891Z,13.54
2019-04-29T06:16:39.931Z,14.20
2019-04-29T06:17:44.280Z,14.28
2019-04-29T06:18:40.972Z,14.52
2019-04-29T06:19:41.116Z,13.43
2019-04-29T06:20:40.090Z,14.31
2019-04-29T06:21:40.134Z,15.14
2019-04-29T06:22:41.871Z,15.26
2019-04-29T06:23:40.208Z,15.44
2019-04-29T06:24:41.075Z,15.76
2019-04-29T06:25:40.288Z,15.90
2019-04-29T06:26:43.421Z,15.85
2019-04-29T06:27:40.370Z,15.87
2019-04-29T06:28:40.407Z,14.97
2019-04-29T06:29:40.452Z,13.67
2019-04-29T06:30:40.847Z,14.74
2019-04-29T06:31:40.529Z,15.23
2019-04-29T06:32:40.570Z,15.04
2019-04-29T06:33:40.618Z,15.73
2019-04-29T06:34:41.760Z,16.39
2019-04-29T06:35:43.355Z,15.00
2019-04-29T06:36:40.736Z,14.77
2019-04-29T06:37:40.782Z,15.41
2019-04-29T06:38:40.820Z,14.94
2019-04-29T06:39:40.857Z,14.85
2019-04-29T06:40:40.898Z,13.40
2019-04-29T06:41:45.399Z,13.30
2019-04-29T06:42:40.981Z,13.75
2019-04-29T06:43:41.024Z,13.83
2019-04-29T06:44:44.434Z,14.63
2019-04-29T06:45:41.104Z,14.40
2019-04-29T06:46:41.146Z,15.33
2019-04-29T06:47:41.192Z,15.84
2019-04-29T06:48:41.231Z,15.80
2019-04-29T06:49:41.270Z,16.25
2019-04-29T06:50:41.313Z,16.61
2019-04-29T06:51:41.352Z,16.13
2019-04-29T06:52:41.398Z,15.83
2019-04-29T06:53:41.435Z,16.50
2019-04-29T06:54:41.476Z,16.47
2019-04-29T06:55:41.517Z,16.43
2019-04-29T06:56:41.561Z,16.79
2019-04-29T06:57:41.603Z,16.24
2019-04-29T06:58:41.648Z,16.61
2019-04-29T06:59:42.960Z,16.62
2019-04-29T07:00:41.731Z,17.09
2019-04-29T07:01:41.775Z,16.65
2019-04-29T07:02:45.574Z,16.16
2019-04-29T07:03:41.858Z,16.03
2019-04-29T07:04:41.899Z,15.17
2019-04-29T07:05:41.940Z,15.11
2019-04-29T07:06:41.983Z,15.51
2019-04-29T07:07:42.024Z,16.29
2019-04-29T07:08:42.067Z,15.17
2019-04-29T07:09:42.115Z,14.93
2019-04-29T07:10:42.154Z,15.39
2019-04-29T07:11:42.198Z,15.90
2019-04-29T07:12:42.816Z,16.80
2019-04-29T07:13:42.283Z,17.23
2019-04-29T07:14:42.325Z,17.57
2019-04-29T07:15:43.525Z,16.03
2019-04-29T07:16:42.408Z,16.62
2019-04-29T07:17:43.022Z,15.29
2019-04-29T07:18:48.363Z,15.63
2019-04-29T07:19:42.538Z,16.69
2019-04-29T07:20:42.581Z,17.27
2019-04-29T07:21:47.107Z,17.49
2019-04-29T07:22:42.671Z,18.11
2019-04-29T07:23:42.710Z,18.30
2019-04-29T07:24:42.759Z,17.05
2019-04-29T07:25:42.809Z,17.17
2019-04-29T07:26:42.843Z,16.77
2019-04-29T07:27:44.474Z,17.09
2019-04-29T07:28:42.927Z,17.04
2019-04-29T07:29:42.975Z,17.31
2019-04-29T07:31:00.743Z,16.47
2019-04-29T07:31:43.061Z,16.13
2019-04-29T07:32:47.131Z,16.68
2019-04-29T07:33:43.146Z,15.85
2019-04-29T07:34:43.191Z,15.66
2019-04-29T07:35:47.875Z,15.92
2019-04-29T07:36:43.279Z,16.59
2019-04-29T07:37:43.323Z,17.37
2019-04-29T07:38:46.459Z,17.72
2019-04-29T07:39:43.410Z,17.72
2019-04-29T07:40:44.528Z,17.04
2019-04-29T07:41:43.499Z,17.37
2019-04-29T07:42:43.546Z,17.30
2019-04-29T07:43:44.258Z,16.76
2019-04-29T07:44:44.493Z,17.50
2019-04-29T07:45:44.676Z,16.82
2019-04-29T07:46:56.291Z,17.19
2019-04-29T07:47:55.802Z,17.94
2019-04-29T07:48:43.897Z,18.51
2019-04-29T07:49:47.382Z,17.14
2019-04-29T07:50:43.900Z,17.04
2019-04-29T07:51:43.946Z,17.35
2019-04-29T07:52:45.680Z,17.91
2019-04-29T07:53:45.485Z,17.53
2019-04-29T07:54:48.255Z,17.32
2019-04-29T07:55:44.124Z,17.46
2019-04-29T07:56:44.171Z,17.68
2019-04-29T07:57:47.720Z,17.95
2019-04-29T07:58:44.259Z,18.05
2019-04-29T07:59:44.310Z,17.91
2019-04-29T08:00:44.595Z,18.27
2019-04-29T08:01:44.399Z,18.16
2019-04-29T08:02:44.444Z,18.67
2019-04-29T08:03:44.486Z,17.49
2019-04-29T08:04:44.533Z,18.13
2019-04-29T08:05:44.578Z,17.95
2019-04-29T08:06:44.936Z,18.46
2019-04-29T08:07:44.670Z,18.92
2019-04-29T08:08:54.730Z,18.11
2019-04-29T08:09:45.374Z,17.46
2019-04-29T08:10:55.750Z,16.62
2019-04-29T08:11:44.855Z,16.02
2019-04-29T08:12:44.912Z,16.77
2019-04-29T08:13:44.944Z,17.05
2019-04-29T08:14:44.998Z,17.28
2019-04-29T08:15:45.037Z,16.37
2019-04-29T08:16:45.083Z,16.58
2019-04-29T08:17:45.132Z,16.46
2019-04-29T08:18:45.178Z,15.92
2019-04-29T08:19:45.220Z,15.12
2019-04-29T08:20:45.269Z,15.57
2019-04-29T08:21:49.458Z,16.05
2019-04-29T08:22:45.361Z,15.88
2019-04-29T08:23:45.406Z,15.37
2019-04-29T08:24:46.017Z,16.03
2019-04-29T08:25:45.494Z,16.99
2019-04-29T08:26:47.565Z,17.84
2019-04-29T08:27:45.589Z,18.28
2019-04-29T08:28:45.633Z,18.36
2019-04-29T08:29:45.679Z,18.58
2019-04-29T08:30:46.093Z,18.79
2019-04-29T08:31:45.776Z,18.88
2019-04-29T08:32:45.822Z,19.07
2019-04-29T08:33:46.679Z,19.19
2019-04-29T08:34:45.909Z,18.94
2019-04-29T08:35:46.896Z,18.98
2019-04-29T08:36:46.001Z,18.79
2019-04-29T08:37:46.054Z,18.27
2019-04-29T08:38:46.096Z,17.39
2019-04-29T08:39:59.180Z,16.97
2019-04-29T08:40:50.234Z,17.16
2019-04-29T08:41:46.234Z,18.27
2019-04-29T08:42:46.933Z,18.28
2019-04-29T08:43:46.326Z,18.61
2019-04-29T08:44:46.372Z,17.76
2019-04-29T08:45:46.421Z,17.46
2019-04-29T08:46:51.651Z,18.30
2019-04-29T08:47:46.513Z,18.30
2019-04-29T08:48:46.564Z,18.33
2019-04-29T08:49:46.608Z,18.13
2019-04-29T08:50:46.655Z,17.75
2019-04-29T08:51:46.702Z,17.01
2019-04-29T08:52:46.751Z,17.50
2019-04-29T08:53:46.795Z,17.68
2019-04-29T08:54:50.711Z,17.32
2019-04-29T08:55:46.888Z,17.94
2019-04-29T08:57:02.237Z,18.71
2019-04-29T08:57:46.986Z,18.97
2019-04-29T08:58:49.221Z,19.17
2019-04-29T08:59:47.078Z,18.78
2019-04-29T09:00:47.128Z,18.15
2019-04-29T09:01:47.175Z,17.56
2019-04-29T09:02:49.237Z,18.03
2019-04-29T09:03:47.270Z,18.57
2019-04-29T09:04:53.688Z,18.73
2019-04-29T09:06:04.309Z,18.42
2019-04-29T09:06:47.408Z,18.86
2019-04-29T09:07:47.458Z,18.88
2019-04-29T09:08:55.303Z,18.09
2019-04-29T09:09:48.499Z,18.48
2019-04-29T09:10:47.598Z,18.88
2019-04-29T09:11:48.326Z,18.73
2019-04-29T09:12:47.692Z,18.36
2019-04-29T09:13:47.739Z,18.55
2019-04-29T09:14:47.791Z,17.71
2019-04-29T09:15:47.834Z,18.23
2019-04-29T09:16:47.905Z,17.32
2019-04-29T09:17:47.927Z,17.91
2019-04-29T09:18:47.978Z,18.43
2019-04-29T09:19:48.025Z,18.46
2019-04-29T09:20:48.069Z,17.37
2019-04-29T09:21:48.114Z,17.01
2019-04-29T09:22:48.167Z,17.47
2019-04-29T09:23:48.215Z,17.88
2019-04-29T09:24:49.613Z,17.90
2019-04-29T09:26:01.568Z,18.21
2019-04-29T09:26:48.354Z,18.61
2019-04-29T09:27:48.398Z,18.70
2019-04-29T09:28:49.962Z,19.17
2019-04-29T09:29:48.493Z,19.26
2019-04-29T09:30:48.543Z,19.71
2019-04-29T09:31:48.589Z,19.67
2019-04-29T09:32:48.634Z,19.62
2019-04-29T09:33:50.828Z,19.15
2019-04-29T09:34:48.728Z,18.76
2019-04-29T09:35:48.777Z,18.91
2019-04-29T09:36:49.847Z,18.73
2019-04-29T09:37:48.872Z,18.60
2019-04-29T09:38:48.922Z,19.19
2019-04-29T09:39:48.967Z,19.85
2019-04-29T09:40:49.015Z,20.18
2019-04-29T09:41:49.062Z,20.15
2019-04-29T09:42:50.169Z,20.08
2019-04-29T09:43:49.170Z,20.30
2019-04-29T09:44:49.202Z,20.04
2019-04-29T09:45:49.252Z,20.11
2019-04-29T09:46:49.305Z,20.58
2019-04-29T09:47:49.348Z,20.29
2019-04-29T09:48:49.395Z,20.86
2019-04-29T09:49:49.445Z,19.72
2019-04-29T09:50:49.493Z,18.34
2019-04-29T09:51:49.546Z,18.39
2019-04-29T09:52:49.591Z,18.30
2019-04-29T09:53:49.637Z,18.89
2019-04-29T09:54:49.682Z,18.08
2019-04-29T09:55:49.733Z,18.15
2019-04-29T09:56:49.781Z,18.39
2019-04-29T09:57:49.833Z,18.37
2019-04-29T09:58:49.875Z,18.46
2019-04-29T09:59:49.920Z,19.15
2019-04-29T10:00:49.981Z,19.17
2019-04-29T10:01:50.495Z,19.16
2019-04-29T10:02:50.069Z,19.56
2019-04-29T10:03:50.110Z,19.72
2019-04-29T10:04:56.623Z,19.63
2019-04-29T10:05:50.211Z,18.21
2019-04-29T10:06:50.258Z,17.72
2019-04-29T10:07:50.302Z,17.80
2019-04-29T10:08:50.351Z,18.19
2019-04-29T10:09:57.566Z,17.27
2019-04-29T10:10:50.444Z,18.03
2019-04-29T10:11:50.492Z,18.94
2019-04-29T10:12:53.632Z,17.49
2019-04-29T10:13:50.591Z,16.83
2019-04-29T10:14:50.633Z,17.14
2019-04-29T10:15:50.681Z,17.46
2019-04-29T10:16:51.596Z,17.90
2019-04-29T10:17:55.477Z,17.12
2019-04-29T10:18:50.820Z,17.53
2019-04-29T10:19:50.867Z,18.24
2019-04-29T10:20:50.914Z,18.30
2019-04-29T10:21:50.961Z,17.32
2019-04-29T10:22:53.754Z,16.59
2019-04-29T10:23:51.059Z,17.34
2019-04-29T10:24:51.100Z,17.87
2019-04-29T10:25:51.148Z,18.61
2019-04-29T10:26:51.194Z,18.52
2019-04-29T10:27:51.241Z,18.85
2019-04-29T10:28:51.284Z,18.00
2019-04-29T10:29:55.232Z,17.19
2019-04-29T10:30:51.379Z,16.47
2019-04-29T10:31:51.471Z,16.92
2019-04-29T10:32:51.473Z,17.27
2019-04-29T10:33:54.875Z,17.68
2019-04-29T10:34:51.562Z,17.90
2019-04-29T10:35:51.609Z,18.58
2019-04-29T10:36:52.549Z,17.91
2019-04-29T10:37:51.700Z,18.64
2019-04-29T10:38:51.746Z,17.93
2019-04-29T10:39:51.793Z,17.86
2019-04-29T10:40:51.838Z,18.45
2019-04-29T10:41:51.886Z,18.37
2019-04-29T10:42:51.931Z,18.81
2019-04-29T10:43:53.760Z,19.17
2019-04-29T10:44:52.024Z,19.77
2019-04-29T10:45:52.073Z,20.19
2019-04-29T10:46:52.117Z,20.04
2019-04-29T10:47:52.168Z,19.77
2019-04-29T10:48:52.207Z,18.36
2019-04-29T10:49:52.259Z,17.57
2019-04-29T10:50:53.754Z,17.50
2019-04-29T10:51:52.351Z,17.42
2019-04-29T10:52:52.394Z,18.16
2019-04-29T10:53:52.715Z,17.66
2019-04-29T10:54:55.224Z,16.61
2019-04-29T10:55:52.535Z,17.39
2019-04-29T10:56:52.583Z,18.13
2019-04-29T10:57:52.628Z,18.86
2019-04-29T10:58:52.677Z,19.44
2019-04-29T10:59:52.719Z,19.47
2019-04-29T11:00:57.089Z,19.60
2019-04-29T11:02:01.152Z,19.12
2019-04-29T11:02:52.860Z,18.83
2019-04-29T11:03:55.827Z,19.15
2019-04-29T11:04:52.950Z,17.97
2019-04-29T11:06:00.253Z,18.49
2019-04-29T11:06:53.043Z,18.76
2019-04-29T11:07:53.089Z,18.68
2019-04-29T11:08:53.138Z,18.76
2019-04-29T11:09:53.183Z,18.21
2019-04-29T11:11:01.876Z,18.91
2019-04-29T11:11:53.279Z,17.72
2019-04-29T11:12:53.323Z,17.98
2019-04-29T11:13:53.371Z,18.64
2019-04-29T11:14:53.419Z,18.98
2019-04-29T11:15:53.462Z,19.11
2019-04-29T11:16:53.507Z,19.08
2019-04-29T11:17:59.197Z,18.92
2019-04-29T11:18:55.144Z,18.85
2019-04-29T11:19:53.654Z,18.79
2019-04-29T11:20:55.466Z,18.05
2019-04-29T11:21:53.743Z,18.09
2019-04-29T11:22:53.788Z,18.11
2019-04-29T11:23:54.861Z,18.48
2019-04-29T11:24:53.882Z,18.12
2019-04-29T11:25:53.927Z,18.58
2019-04-29T11:26:53.972Z,18.27
2019-04-29T11:27:56.141Z,18.61
2019-04-29T11:28:54.813Z,18.27
2019-04-29T11:29:54.110Z,18.57
2019-04-29T11:30:54.156Z,18.85
2019-04-29T11:31:55.796Z,18.64
2019-04-29T11:32:54.264Z,18.21
2019-04-29T11:33:54.298Z,18.70
2019-04-29T11:34:55.054Z,18.94
2019-04-29T11:35:54.389Z,19.22
2019-04-29T11:36:54.434Z,19.32
2019-04-29T11:37:56.112Z,19.67
2019-04-29T11:38:54.527Z,19.44
2019-04-29T11:39:57.087Z,18.64
2019-04-29T11:40:54.621Z,17.97
2019-04-29T11:41:59.493Z,17.91
2019-04-29T11:42:54.714Z,18.34
2019-04-29T11:43:54.757Z,18.97
2019-04-29T11:44:57.069Z,19.24
2019-04-29T11:45:54.850Z,18.19
2019-04-29T11:46:54.900Z,17.16
2019-04-29T11:47:54.944Z,16.97
2019-04-29T11:48:54.990Z,17.31
2019-04-29T11:49:55.038Z,17.39
2019-04-29T11:50:55.354Z,17.93
2019-04-29T11:52:09.301Z,18.53
2019-04-29T11:52:55.671Z,18.85
2019-04-29T11:53:55.224Z,18.63
2019-04-29T11:54:55.270Z,18.46
2019-04-29T11:55:57.004Z,18.42
2019-04-29T11:56:55.361Z,18.61
2019-04-29T11:57:55.410Z,18.52
2019-04-29T11:58:55.467Z,18.61
2019-04-29T11:59:55.498Z,18.00
2019-04-29T12:00:55.551Z,18.57
2019-04-29T12:01:55.593Z,17.63
2019-04-29T12:02:55.637Z,18.27
2019-04-29T12:03:56.618Z,17.68
2019-04-29T12:04:55.734Z,16.51
2019-04-29T12:05:55.776Z,16.41
2019-04-29T12:06:56.423Z,16.25
2019-04-29T12:07:55.871Z,17.17
2019-04-29T12:08:55.912Z,17.88
2019-04-29T12:09:55.961Z,17.84
2019-04-29T12:11:06.659Z,18.26
2019-04-29T12:11:56.053Z,17.94
2019-04-29T12:12:56.100Z,17.72
2019-04-29T12:13:58.924Z,18.06
2019-04-29T12:14:56.190Z,17.73
2019-04-29T12:15:56.239Z,18.05
2019-04-29T12:16:56.284Z,18.18
2019-04-29T12:17:56.336Z,18.49
2019-04-29T12:18:56.377Z,18.45
2019-04-29T12:19:56.420Z,18.94
2019-04-29T12:20:56.467Z,18.26
2019-04-29T12:21:56.514Z,17.37
2019-04-29T12:22:56.559Z,17.57
2019-04-29T12:23:56.604Z,17.98
2019-04-29T12:24:56.653Z,18.27
2019-04-29T12:25:58.763Z,18.00
2019-04-29T12:26:56.744Z,17.86
2019-04-29T12:28:01.686Z,17.59
2019-04-29T12:28:56.837Z,17.69
2019-04-29T12:29:59.339Z,18.26
2019-04-29T12:30:56.931Z,18.06
2019-04-29T12:31:56.973Z,18.51
2019-04-29T12:33:01.347Z,18.98
2019-04-29T12:33:57.067Z,18.76
2019-04-29T12:34:57.110Z,18.52
2019-04-29T12:35:58.620Z,19.04
2019-04-29T12:36:57.202Z,18.36
2019-04-29T12:38:00.686Z,18.92
2019-04-29T12:38:57.298Z,19.30
2019-04-29T12:39:59.703Z,19.48
2019-04-29T12:40:57.388Z,19.23
2019-04-29T12:42:00.669Z,19.70
2019-04-29T12:42:57.486Z,20.19
2019-04-29T12:43:59.522Z,20.46
2019-04-29T12:44:57.576Z,20.77
2019-04-29T12:45:57.620Z,20.07
2019-04-29T12:46:57.670Z,20.10
2019-04-29T12:47:57.715Z,19.97
2019-04-29T12:48:57.766Z,19.44
2019-04-29T12:49:57.808Z,19.55
2019-04-29T12:50:57.857Z,19.93
2019-04-29T12:51:58.008Z,20.48
2019-04-29T12:52:57.951Z,20.42
2019-04-29T12:53:57.998Z,19.64
2019-04-29T12:55:01.749Z,19.84
2019-04-29T12:55:58.089Z,19.72
2019-04-29T12:56:58.136Z,19.42
2019-04-29T12:57:58.185Z,19.56
2019-04-29T12:59:00.052Z,19.38
2019-04-29T12:59:58.276Z,19.70
2019-04-29T13:01:00.950Z,20.22
2019-04-29T13:01:59.233Z,20.33